sensor_id;sensor_type;location;lat;lon;timestamp;P1;durP1;ratioP1;P2;durP2;ratioP2
58308;SDS011;44117;57.142;24.826;2022-11-14T00:01:10;9.27;;;3.95;;
58308;SDS011;44117;57.142;24.826;2022-11-14T00:03:38;7.63;;;3.88;;
58308;SDS011;44117;57.142;24.826;2022-11-14T00:06:06;8.35;;;4.22;;
58308;SDS011;44117;57.142;24.826;2022-11-14T00:08:34;6.68;;;3.97;;
58308;SDS011;44117;57.142;24.826;2022-11-14T00:11:01;6.13;;;3.45;;
58308;SDS011;44117;57.142;24.826;2022-11-14T00:13:29;5.32;;;3.45;;
58308;SDS011;44117;57.142;24.826;2022-11-14T00:15:56;5.43;;;3.33;;
58308;SDS011;44117;57.142;24.826;2022-11-14T00:18:23;7.28;;;3.47;;
58308;SDS011;44117;57.142;24.826;2022-11-14T00:20:51;4.68;;;2.80;;
58308;SDS011;44117;57.142;24.826;2022-11-14T00:23:19;6.38;;;3.38;;
58308;SDS011;44117;57.142;24.826;2022-11-14T00:25:47;4.80;;;3.25;;
58308;SDS011;44117;57.142;24.826;2022-11-14T00:28:15;6.40;;;3.20;;
58308;SDS011;44117;57.142;24.826;2022-11-14T00:30:46;5.95;;;3.30;;
58308;SDS011;44117;57.142;24.826;2022-11-14T00:33:14;9.05;;;3.83;;
58308;SDS011;44117;57.142;24.826;2022-11-14T00:35:52;10.20;;;3.50;;
58308;SDS011;44117;57.142;24.826;2022-11-14T00:38:20;10.20;;;3.45;;
58308;SDS011;44117;57.142;24.826;2022-11-14T00:40:48;11.10;;;4.22;;
58308;SDS011;44117;57.142;24.826;2022-11-14T00:43:15;5.00;;;3.17;;
58308;SDS011;44117;57.142;24.826;2022-11-14T00:45:43;5.05;;;2.80;;
58308;SDS011;44117;57.142;24.826;2022-11-14T00:48:11;4.03;;;2.75;;
58308;SDS011;44117;57.142;24.826;2022-11-14T00:50:39;10.25;;;4.15;;
58308;SDS011;44117;57.142;24.826;2022-11-14T00:53:06;6.85;;;3.70;;
58308;SDS011;44117;57.142;24.826;2022-11-14T00:55:34;8.98;;;3.10;;
58308;SDS011;44117;57.142;24.826;2022-11-14T00:58:01;7.72;;;3.53;;
58308;SDS011;44117;57.142;24.826;2022-11-14T01:00:28;7.13;;;3.42;;
58308;SDS011;44117;57.142;24.826;2022-11-14T01:02:55;8.18;;;3.70;;
58308;SDS011;44117;57.142;24.826;2022-11-14T01:05:24;7.28;;;2.78;;
58308;SDS011;44117;57.142;24.826;2022-11-14T01:07:52;7.35;;;3.03;;
58308;SDS011;44117;57.142;24.826;2022-11-14T01:10:20;7.88;;;3.20;;
58308;SDS011;44117;57.142;24.826;2022-11-14T01:12:47;7.10;;;3.10;;
58308;SDS011;44117;57.142;24.826;2022-11-14T01:15:14;8.70;;;3.28;;
58308;SDS011;44117;57.142;24.826;2022-11-14T01:17:42;5.47;;;2.45;;
58308;SDS011;44117;57.142;24.826;2022-11-14T01:20:09;7.70;;;2.97;;
58308;SDS011;44117;57.142;24.826;2022-11-14T01:22:36;8.90;;;2.70;;
58308;SDS011;44117;57.142;24.826;2022-11-14T01:25:03;5.32;;;2.45;;
58308;SDS011;44117;57.142;24.826;2022-11-14T01:27:31;5.13;;;2.22;;
58308;SDS011;44117;57.142;24.826;2022-11-14T01:29:58;7.32;;;2.70;;
58308;SDS011;44117;57.142;24.826;2022-11-14T01:32:26;5.97;;;2.55;;
58308;SDS011;44117;57.142;24.826;2022-11-14T01:34:53;5.25;;;2.10;;
58308;SDS011;44117;57.142;24.826;2022-11-14T01:37:20;8.77;;;2.63;;
58308;SDS011;44117;57.142;24.826;2022-11-14T01:39:48;49.35;;;9.48;;
58308;SDS011;44117;57.142;24.826;2022-11-14T01:42:15;37.95;;;9.18;;
58308;SDS011;44117;57.142;24.826;2022-11-14T01:44:45;20.02;;;5.10;;
58308;SDS011;44117;57.142;24.826;2022-11-14T01:47:19;12.25;;;3.95;;
58308;SDS011;44117;57.142;24.826;2022-11-14T01:49:56;46.90;;;10.73;;
58308;SDS011;44117;57.142;24.826;2022-11-14T01:52:30;43.30;;;12.10;;
58308;SDS011;44117;57.142;24.826;2022-11-14T01:55:02;21.95;;;6.05;;
58308;SDS011;44117;57.142;24.826;2022-11-14T01:57:33;21.70;;;6.05;;
58308;SDS011;44117;57.142;24.826;2022-11-14T02:00:05;15.75;;;4.93;;
58308;SDS011;44117;57.142;24.826;2022-11-14T02:02:35;9.68;;;4.30;;
58308;SDS011;44117;57.142;24.826;2022-11-14T02:05:08;6.10;;;3.08;;
58308;SDS011;44117;57.142;24.826;2022-11-14T02:07:38;3.17;;;1.80;;
58308;SDS011;44117;57.142;24.826;2022-11-14T02:10:08;4.68;;;2.17;;
58308;SDS011;44117;57.142;24.826;2022-11-14T02:12:41;3.95;;;2.30;;
58308;SDS011;44117;57.142;24.826;2022-11-14T02:15:09;69.30;;;6.57;;
58308;SDS011;44117;57.142;24.826;2022-11-14T02:17:37;8.98;;;3.25;;
58308;SDS011;44117;57.142;24.826;2022-11-14T02:22:38;8.82;;;3.03;;
58308;SDS011;44117;57.142;24.826;2022-11-14T02:25:07;14.70;;;3.60;;
58308;SDS011;44117;57.142;24.826;2022-11-14T02:27:38;12.20;;;4.07;;
58308;SDS011;44117;57.142;24.826;2022-11-14T02:30:10;9.93;;;3.22;;
58308;SDS011;44117;57.142;24.826;2022-11-14T02:32:42;15.60;;;3.70;;
58308;SDS011;44117;57.142;24.826;2022-11-14T02:35:30;19.05;;;4.30;;
58308;SDS011;44117;57.142;24.826;2022-11-14T02:37:57;7.85;;;3.08;;
58308;SDS011;44117;57.142;24.826;2022-11-14T02:40:24;8.60;;;3.22;;
58308;SDS011;44117;57.142;24.826;2022-11-14T02:42:51;5.28;;;2.40;;
58308;SDS011;44117;57.142;24.826;2022-11-14T02:45:18;5.22;;;2.55;;
58308;SDS011;44117;57.142;24.826;2022-11-14T02:47:46;6.03;;;2.60;;
58308;SDS011;44117;57.142;24.826;2022-11-14T02:50:13;17.55;;;3.72;;
58308;SDS011;44117;57.142;24.826;2022-11-14T02:52:41;7.47;;;2.70;;
58308;SDS011;44117;57.142;24.826;2022-11-14T02:55:08;5.93;;;2.53;;
58308;SDS011;44117;57.142;24.826;2022-11-14T02:57:36;7.80;;;3.28;;
58308;SDS011;44117;57.142;24.826;2022-11-14T03:00:03;7.20;;;3.42;;
58308;SDS011;44117;57.142;24.826;2022-11-14T03:02:39;17.48;;;3.90;;
58308;SDS011;44117;57.142;24.826;2022-11-14T03:05:07;27.80;;;8.52;;
58308;SDS011;44117;57.142;24.826;2022-11-14T03:07:34;30.55;;;16.10;;
58308;SDS011;44117;57.142;24.826;2022-11-14T03:10:01;45.28;;;24.33;;
58308;SDS011;44117;57.142;24.826;2022-11-14T03:12:28;32.70;;;14.52;;
58308;SDS011;44117;57.142;24.826;2022-11-14T03:14:56;11.15;;;5.57;;
58308;SDS011;44117;57.142;24.826;2022-11-14T03:17:23;8.38;;;3.83;;
58308;SDS011;44117;57.142;24.826;2022-11-14T03:19:50;7.00;;;3.75;;
58308;SDS011;44117;57.142;24.826;2022-11-14T03:22:17;7.25;;;3.75;;
58308;SDS011;44117;57.142;24.826;2022-11-14T03:24:44;8.45;;;3.75;;
58308;SDS011;44117;57.142;24.826;2022-11-14T03:27:12;9.90;;;3.55;;
58308;SDS011;44117;57.142;24.826;2022-11-14T03:29:39;6.93;;;3.30;;
58308;SDS011;44117;57.142;24.826;2022-11-14T03:32:06;5.80;;;2.75;;
58308;SDS011;44117;57.142;24.826;2022-11-14T03:34:33;9.80;;;4.40;;
58308;SDS011;44117;57.142;24.826;2022-11-14T03:37:01;50.38;;;22.35;;
58308;SDS011;44117;57.142;24.826;2022-11-14T03:39:28;30.40;;;14.52;;
58308;SDS011;44117;57.142;24.826;2022-11-14T03:41:55;55.88;;;26.50;;
58308;SDS011;44117;57.142;24.826;2022-11-14T03:44:22;67.22;;;35.20;;
58308;SDS011;44117;57.142;24.826;2022-11-14T03:46:50;17.90;;;9.38;;
58308;SDS011;44117;57.142;24.826;2022-11-14T03:49:18;10.77;;;6.30;;
58308;SDS011;44117;57.142;24.826;2022-11-14T03:51:45;19.83;;;11.23;;
58308;SDS011;44117;57.142;24.826;2022-11-14T03:54:12;9.90;;;4.70;;
58308;SDS011;44117;57.142;24.826;2022-11-14T03:56:39;8.30;;;4.95;;
58308;SDS011;44117;57.142;24.826;2022-11-14T03:59:07;14.20;;;9.23;;
58308;SDS011;44117;57.142;24.826;2022-11-14T04:01:34;24.73;;;17.00;;
58308;SDS011;44117;57.142;24.826;2022-11-14T04:04:01;26.90;;;15.60;;
58308;SDS011;44117;57.142;24.826;2022-11-14T04:06:28;39.83;;;21.23;;
58308;SDS011;44117;57.142;24.826;2022-11-14T04:08:55;19.30;;;12.70;;
58308;SDS011;44117;57.142;24.826;2022-11-14T04:11:22;19.48;;;11.63;;
58308;SDS011;44117;57.142;24.826;2022-11-14T04:13:50;37.17;;;19.17;;
58308;SDS011;44117;57.142;24.826;2022-11-14T04:16:17;29.85;;;15.68;;
58308;SDS011;44117;57.142;24.826;2022-11-14T04:18:44;27.42;;;12.38;;
58308;SDS011;44117;57.142;24.826;2022-11-14T04:21:11;21.42;;;11.70;;
58308;SDS011;44117;57.142;24.826;2022-11-14T04:23:38;21.35;;;9.23;;
58308;SDS011;44117;57.142;24.826;2022-11-14T04:26:06;45.50;;;22.65;;
58308;SDS011;44117;57.142;24.826;2022-11-14T04:28:33;20.70;;;11.02;;
58308;SDS011;44117;57.142;24.826;2022-11-14T04:31:00;35.35;;;16.02;;
58308;SDS011;44117;57.142;24.826;2022-11-14T04:33:27;71.65;;;31.52;;
58308;SDS011;44117;57.142;24.826;2022-11-14T04:35:54;48.50;;;20.13;;
58308;SDS011;44117;57.142;24.826;2022-11-14T04:38:21;63.65;;;27.65;;
58308;SDS011;44117;57.142;24.826;2022-11-14T04:40:52;13.30;;;7.90;;
58308;SDS011;44117;57.142;24.826;2022-11-14T04:43:19;8.13;;;4.43;;
58308;SDS011;44117;57.142;24.826;2022-11-14T04:45:47;7.82;;;4.30;;
58308;SDS011;44117;57.142;24.826;2022-11-14T04:48:14;8.52;;;4.10;;
58308;SDS011;44117;57.142;24.826;2022-11-14T04:50:41;7.90;;;3.88;;
58308;SDS011;44117;57.142;24.826;2022-11-14T04:53:10;12.10;;;6.28;;
58308;SDS011;44117;57.142;24.826;2022-11-14T04:55:37;30.80;;;17.40;;
58308;SDS011;44117;57.142;24.826;2022-11-14T04:58:04;33.10;;;21.00;;
58308;SDS011;44117;57.142;24.826;2022-11-14T05:00:32;70.43;;;36.75;;
58308;SDS011;44117;57.142;24.826;2022-11-14T05:02:59;12.85;;;5.95;;
58308;SDS011;44117;57.142;24.826;2022-11-14T05:05:26;5.72;;;3.30;;
58308;SDS011;44117;57.142;24.826;2022-11-14T05:07:53;13.20;;;6.45;;
58308;SDS011;44117;57.142;24.826;2022-11-14T05:10:21;21.70;;;10.35;;
58308;SDS011;44117;57.142;24.826;2022-11-14T05:12:51;32.25;;;14.13;;
58308;SDS011;44117;57.142;24.826;2022-11-14T05:15:19;9.02;;;5.65;;
58308;SDS011;44117;57.142;24.826;2022-11-14T05:17:46;26.17;;;14.50;;
58308;SDS011;44117;57.142;24.826;2022-11-14T05:20:14;92.18;;;44.03;;
58308;SDS011;44117;57.142;24.826;2022-11-14T05:22:41;114.85;;;51.50;;
58308;SDS011;44117;57.142;24.826;2022-11-14T05:25:08;103.47;;;45.00;;
58308;SDS011;44117;57.142;24.826;2022-11-14T05:27:36;77.03;;;34.17;;
58308;SDS011;44117;57.142;24.826;2022-11-14T05:30:03;22.52;;;12.05;;
58308;SDS011;44117;57.142;24.826;2022-11-14T05:32:31;17.38;;;8.80;;
58308;SDS011;44117;57.142;24.826;2022-11-14T05:34:58;10.25;;;5.80;;
58308;SDS011;44117;57.142;24.826;2022-11-14T05:37:25;15.85;;;8.45;;
58308;SDS011;44117;57.142;24.826;2022-11-14T05:39:52;17.23;;;9.55;;
58308;SDS011;44117;57.142;24.826;2022-11-14T05:42:19;13.45;;;7.03;;
58308;SDS011;44117;57.142;24.826;2022-11-14T05:44:46;11.25;;;5.68;;
58308;SDS011;44117;57.142;24.826;2022-11-14T05:47:14;20.17;;;7.75;;
58308;SDS011;44117;57.142;24.826;2022-11-14T05:49:41;45.45;;;15.43;;
58308;SDS011;44117;57.142;24.826;2022-11-14T05:52:08;67.38;;;19.83;;
58308;SDS011;44117;57.142;24.826;2022-11-14T05:54:35;57.55;;;20.13;;
58308;SDS011;44117;57.142;24.826;2022-11-14T05:57:03;58.53;;;20.33;;
58308;SDS011;44117;57.142;24.826;2022-11-14T05:59:30;35.97;;;15.07;;
58308;SDS011;44117;57.142;24.826;2022-11-14T06:01:57;28.85;;;12.05;;
58308;SDS011;44117;57.142;24.826;2022-11-14T06:04:25;14.13;;;6.38;;
58308;SDS011;44117;57.142;24.826;2022-11-14T06:06:52;15.52;;;7.43;;
58308;SDS011;44117;57.142;24.826;2022-11-14T06:09:20;18.05;;;6.82;;
58308;SDS011;44117;57.142;24.826;2022-11-14T06:11:47;16.35;;;7.20;;
58308;SDS011;44117;57.142;24.826;2022-11-14T06:14:14;28.63;;;11.05;;
58308;SDS011;44117;57.142;24.826;2022-11-14T06:16:41;32.60;;;12.50;;
58308;SDS011;44117;57.142;24.826;2022-11-14T06:19:09;22.17;;;9.85;;
58308;SDS011;44117;57.142;24.826;2022-11-14T06:21:36;29.17;;;15.65;;
58308;SDS011;44117;57.142;24.826;2022-11-14T06:24:03;62.03;;;31.70;;
58308;SDS011;44117;57.142;24.826;2022-11-14T06:26:31;58.80;;;30.08;;
58308;SDS011;44117;57.142;24.826;2022-11-14T06:28:58;26.77;;;12.85;;
58308;SDS011;44117;57.142;24.826;2022-11-14T06:31:26;52.28;;;26.50;;
58308;SDS011;44117;57.142;24.826;2022-11-14T06:33:53;78.97;;;34.92;;
58308;SDS011;44117;57.142;24.826;2022-11-14T06:36:22;32.67;;;17.27;;
58308;SDS011;44117;57.142;24.826;2022-11-14T06:38:49;46.08;;;25.73;;
58308;SDS011;44117;57.142;24.826;2022-11-14T06:41:18;54.85;;;27.63;;
58308;SDS011;44117;57.142;24.826;2022-11-14T06:43:47;41.47;;;21.65;;
58308;SDS011;44117;57.142;24.826;2022-11-14T06:46:17;62.78;;;32.03;;
58308;SDS011;44117;57.142;24.826;2022-11-14T06:48:46;51.60;;;29.83;;
58308;SDS011;44117;57.142;24.826;2022-11-14T06:51:14;49.78;;;29.10;;
58308;SDS011;44117;57.142;24.826;2022-11-14T06:53:42;29.35;;;13.20;;
58308;SDS011;44117;57.142;24.826;2022-11-14T06:56:11;40.85;;;21.90;;
58308;SDS011;44117;57.142;24.826;2022-11-14T06:58:41;44.38;;;23.38;;
58308;SDS011;44117;57.142;24.826;2022-11-14T07:01:14;36.35;;;19.80;;
58308;SDS011;44117;57.142;24.826;2022-11-14T07:03:46;56.70;;;27.35;;
58308;SDS011;44117;57.142;24.826;2022-11-14T07:06:17;81.60;;;42.65;;
58308;SDS011;44117;57.142;24.826;2022-11-14T07:08:45;118.68;;;48.97;;
58308;SDS011;44117;57.142;24.826;2022-11-14T07:11:16;196.43;;;81.25;;
58308;SDS011;44117;57.142;24.826;2022-11-14T07:13:49;156.18;;;60.05;;
58308;SDS011;44117;57.142;24.826;2022-11-14T07:16:24;211.77;;;88.22;;
58308;SDS011;44117;57.142;24.826;2022-11-14T07:18:55;293.27;;;127.85;;
58308;SDS011;44117;57.142;24.826;2022-11-14T07:21:25;224.02;;;92.50;;
58308;SDS011;44117;57.142;24.826;2022-11-14T07:23:54;170.82;;;69.00;;
58308;SDS011;44117;57.142;24.826;2022-11-14T07:26:22;145.82;;;69.28;;
58308;SDS011;44117;57.142;24.826;2022-11-14T07:28:49;74.97;;;39.75;;
58308;SDS011;44117;57.142;24.826;2022-11-14T07:31:21;96.30;;;42.50;;
58308;SDS011;44117;57.142;24.826;2022-11-14T07:33:49;36.38;;;16.13;;
58308;SDS011;44117;57.142;24.826;2022-11-14T07:36:16;59.20;;;24.13;;
58308;SDS011;44117;57.142;24.826;2022-11-14T07:38:43;55.78;;;22.20;;
58308;SDS011;44117;57.142;24.826;2022-11-14T07:41:12;57.72;;;19.20;;
58308;SDS011;44117;57.142;24.826;2022-11-14T07:43:41;73.45;;;26.17;;
58308;SDS011;44117;57.142;24.826;2022-11-14T07:46:12;51.22;;;20.33;;
58308;SDS011;44117;57.142;24.826;2022-11-14T07:48:41;96.15;;;31.30;;
58308;SDS011;44117;57.142;24.826;2022-11-14T07:51:18;73.25;;;24.75;;
58308;SDS011;44117;57.142;24.826;2022-11-14T07:53:46;72.32;;;19.27;;
58308;SDS011;44117;57.142;24.826;2022-11-14T07:56:13;191.07;;;41.25;;
58308;SDS011;44117;57.142;24.826;2022-11-14T07:58:42;659.72;;;110.20;;
58308;SDS011;44117;57.142;24.826;2022-11-14T08:01:10;258.55;;;48.75;;
58308;SDS011;44117;57.142;24.826;2022-11-14T08:03:39;85.22;;;31.70;;
58308;SDS011;44117;57.142;24.826;2022-11-14T08:06:11;55.75;;;15.07;;
58308;SDS011;44117;57.142;24.826;2022-11-14T08:08:41;111.60;;;18.38;;
58308;SDS011;44117;57.142;24.826;2022-11-14T08:11:08;77.53;;;13.40;;
58308;SDS011;44117;57.142;24.826;2022-11-14T08:13:36;60.35;;;12.40;;
58308;SDS011;44117;57.142;24.826;2022-11-14T08:16:07;95.80;;;14.20;;
58308;SDS011;44117;57.142;24.826;2022-11-14T08:18:38;80.38;;;11.43;;
58308;SDS011;44117;57.142;24.826;2022-11-14T08:21:06;86.82;;;11.18;;
58308;SDS011;44117;57.142;24.826;2022-11-14T08:23:33;91.38;;;14.05;;
58308;SDS011;44117;57.142;24.826;2022-11-14T08:26:01;56.22;;;11.73;;
58308;SDS011;44117;57.142;24.826;2022-11-14T08:28:28;44.83;;;11.13;;
58308;SDS011;44117;57.142;24.826;2022-11-14T08:31:02;101.78;;;14.77;;
58308;SDS011;44117;57.142;24.826;2022-11-14T08:33:30;132.18;;;16.38;;
58308;SDS011;44117;57.142;24.826;2022-11-14T08:36:01;91.25;;;15.48;;
58308;SDS011;44117;57.142;24.826;2022-11-14T08:38:30;95.20;;;13.95;;
58308;SDS011;44117;57.142;24.826;2022-11-14T08:40:59;51.03;;;9.35;;
58308;SDS011;44117;57.142;24.826;2022-11-14T08:43:27;49.65;;;9.90;;
58308;SDS011;44117;57.142;24.826;2022-11-14T08:45:59;72.57;;;12.90;;
58308;SDS011;44117;57.142;24.826;2022-11-14T08:48:28;94.47;;;11.15;;
58308;SDS011;44117;57.142;24.826;2022-11-14T08:50:57;83.57;;;9.75;;
58308;SDS011;44117;57.142;24.826;2022-11-14T08:53:28;65.65;;;10.93;;
58308;SDS011;44117;57.142;24.826;2022-11-14T08:55:56;25.33;;;7.95;;
58308;SDS011;44117;57.142;24.826;2022-11-14T08:58:26;86.60;;;10.45;;
58308;SDS011;44117;57.142;24.826;2022-11-14T09:01:02;71.80;;;11.88;;
58308;SDS011;44117;57.142;24.826;2022-11-14T09:03:32;100.22;;;12.18;;
58308;SDS011;44117;57.142;24.826;2022-11-14T09:06:00;80.90;;;9.10;;
58308;SDS011;44117;57.142;24.826;2022-11-14T09:08:28;62.90;;;17.52;;
58308;SDS011;44117;57.142;24.826;2022-11-14T09:11:00;64.90;;;9.32;;
58308;SDS011;44117;57.142;24.826;2022-11-14T09:13:31;57.00;;;12.93;;
58308;SDS011;44117;57.142;24.826;2022-11-14T09:16:01;57.78;;;12.27;;
58308;SDS011;44117;57.142;24.826;2022-11-14T09:18:28;67.55;;;11.10;;
58308;SDS011;44117;57.142;24.826;2022-11-14T09:21:00;67.05;;;12.52;;
58308;SDS011;44117;57.142;24.826;2022-11-14T09:23:29;70.20;;;10.88;;
58308;SDS011;44117;57.142;24.826;2022-11-14T09:25:57;66.35;;;12.77;;
58308;SDS011;44117;57.142;24.826;2022-11-14T09:28:28;84.00;;;8.70;;
58308;SDS011;44117;57.142;24.826;2022-11-14T09:31:13;118.72;;;25.48;;
58308;SDS011;44117;57.142;24.826;2022-11-14T09:33:41;429.17;;;98.57;;
58308;SDS011;44117;57.142;24.826;2022-11-14T09:36:10;108.55;;;27.33;;
58308;SDS011;44117;57.142;24.826;2022-11-14T09:38:41;463.17;;;76.88;;
58308;SDS011;44117;57.142;24.826;2022-11-14T09:46:55;414.38;;;83.80;;
58308;SDS011;44117;57.142;24.826;2022-11-14T09:49:38;545.63;;;124.18;;
58308;SDS011;44117;57.142;24.826;2022-11-14T09:52:11;210.23;;;40.80;;
58308;SDS011;44117;57.142;24.826;2022-11-14T09:55:00;168.65;;;44.40;;
58308;SDS011;44117;57.142;24.826;2022-11-14T09:57:34;133.43;;;31.90;;
58308;SDS011;44117;57.142;24.826;2022-11-14T10:00:05;80.43;;;35.33;;
58308;SDS011;44117;57.142;24.826;2022-11-14T10:05:18;131.48;;;40.30;;
58308;SDS011;44117;57.142;24.826;2022-11-14T10:27:54;102.47;;;33.58;;
58308;SDS011;44117;57.142;24.826;2022-11-14T10:30:33;73.07;;;17.27;;
58308;SDS011;44117;57.142;24.826;2022-11-14T10:33:11;154.52;;;41.47;;
58308;SDS011;44117;57.142;24.826;2022-11-14T10:36:04;62.30;;;10.88;;
58308;SDS011;44117;57.142;24.826;2022-11-14T10:42:15;90.07;;;16.27;;
58308;SDS011;44117;57.142;24.826;2022-11-14T10:48:00;92.22;;;24.92;;
58308;SDS011;44117;57.142;24.826;2022-11-14T10:50:41;107.93;;;23.55;;
58308;SDS011;44117;57.142;24.826;2022-11-14T10:53:24;57.30;;;12.00;;
58308;SDS011;44117;57.142;24.826;2022-11-14T10:56:09;99.60;;;20.30;;
58308;SDS011;44117;57.142;24.826;2022-11-14T10:58:38;84.13;;;11.52;;
58308;SDS011;44117;57.142;24.826;2022-11-14T11:06:39;65.43;;;8.50;;
58308;SDS011;44117;57.142;24.826;2022-11-14T11:09:08;102.60;;;11.93;;
58308;SDS011;44117;57.142;24.826;2022-11-14T11:11:59;144.88;;;18.10;;
58308;SDS011;44117;57.142;24.826;2022-11-14T11:14:28;43.35;;;8.25;;
58308;SDS011;44117;57.142;24.826;2022-11-14T11:19:38;84.28;;;16.30;;
58308;SDS011;44117;57.142;24.826;2022-11-14T11:22:22;70.18;;;11.70;;
58308;SDS011;44117;57.142;24.826;2022-11-14T11:24:55;80.40;;;18.23;;
58308;SDS011;44117;57.142;24.826;2022-11-14T11:27:23;120.05;;;20.30;;
58308;SDS011;44117;57.142;24.826;2022-11-14T11:30:02;71.20;;;24.17;;
58308;SDS011;44117;57.142;24.826;2022-11-14T11:32:32;84.10;;;16.77;;
58308;SDS011;44117;57.142;24.826;2022-11-14T11:35:00;83.97;;;17.45;;
58308;SDS011;44117;57.142;24.826;2022-11-14T11:40:09;60.38;;;12.43;;
58308;SDS011;44117;57.142;24.826;2022-11-14T11:45:43;87.88;;;14.10;;
58308;SDS011;44117;57.142;24.826;2022-11-14T11:48:16;52.95;;;17.08;;
58308;SDS011;44117;57.142;24.826;2022-11-14T11:50:46;60.70;;;17.65;;
58308;SDS011;44117;57.142;24.826;2022-11-14T11:53:18;83.90;;;14.73;;
58308;SDS011;44117;57.142;24.826;2022-11-14T11:56:03;111.35;;;16.10;;
58308;SDS011;44117;57.142;24.826;2022-11-14T12:01:40;125.57;;;15.23;;
58308;SDS011;44117;57.142;24.826;2022-11-14T12:04:07;75.13;;;12.75;;
58308;SDS011;44117;57.142;24.826;2022-11-14T12:06:38;55.72;;;10.55;;
58308;SDS011;44117;57.142;24.826;2022-11-14T12:09:32;78.55;;;10.10;;
58308;SDS011;44117;57.142;24.826;2022-11-14T12:12:29;67.85;;;8.82;;
58308;SDS011;44117;57.142;24.826;2022-11-14T12:15:21;33.80;;;6.22;;
58308;SDS011;44117;57.142;24.826;2022-11-14T12:18:11;40.92;;;7.40;;
58308;SDS011;44117;57.142;24.826;2022-11-14T12:32:05;40.40;;;12.23;;
58308;SDS011;44117;57.142;24.826;2022-11-14T12:34:41;93.07;;;14.15;;
58308;SDS011;44117;57.142;24.826;2022-11-14T12:40:04;39.30;;;10.63;;
58308;SDS011;44117;57.142;24.826;2022-11-14T12:42:33;65.07;;;11.13;;
58308;SDS011;44117;57.142;24.826;2022-11-14T12:45:00;31.88;;;12.30;;
58308;SDS011;44117;57.142;24.826;2022-11-14T12:47:28;57.17;;;14.93;;
58308;SDS011;44117;57.142;24.826;2022-11-14T12:49:56;69.35;;;16.05;;
58308;SDS011;44117;57.142;24.826;2022-11-14T12:55:55;50.60;;;9.73;;
58308;SDS011;44117;57.142;24.826;2022-11-14T13:05:57;38.35;;;10.73;;
58308;SDS011;44117;57.142;24.826;2022-11-14T13:14:23;98.65;;;25.20;;
58308;SDS011;44117;57.142;24.826;2022-11-14T13:19:57;30.60;;;6.47;;
58308;SDS011;44117;57.142;24.826;2022-11-14T13:22:44;55.08;;;9.63;;
58308;SDS011;44117;57.142;24.826;2022-11-14T13:27:44;32.47;;;6.45;;
58308;SDS011;44117;57.142;24.826;2022-11-14T13:33:42;64.63;;;12.77;;
58308;SDS011;44117;57.142;24.826;2022-11-14T13:41:58;33.47;;;9.73;;
58308;SDS011;44117;57.142;24.826;2022-11-14T13:50:10;80.13;;;20.25;;
58308;SDS011;44117;57.142;24.826;2022-11-14T13:52:44;41.55;;;16.27;;
58308;SDS011;44117;57.142;24.826;2022-11-14T13:55:20;41.25;;;10.32;;
58308;SDS011;44117;57.142;24.826;2022-11-14T14:00:46;100.20;;;15.40;;
58308;SDS011;44117;57.142;24.826;2022-11-14T14:06:37;72.80;;;14.98;;
58308;SDS011;44117;57.142;24.826;2022-11-14T14:12:02;91.30;;;15.77;;
58308;SDS011;44117;57.142;24.826;2022-11-14T14:15:02;50.65;;;16.85;;
58308;SDS011;44117;57.142;24.826;2022-11-14T14:17:52;71.45;;;17.83;;
58308;SDS011;44117;57.142;24.826;2022-11-14T14:20:36;70.75;;;17.42;;
58308;SDS011;44117;57.142;24.826;2022-11-14T14:23:33;65.70;;;20.30;;
58308;SDS011;44117;57.142;24.826;2022-11-14T14:26:38;42.40;;;13.45;;
58308;SDS011;44117;57.142;24.826;2022-11-14T14:32:09;87.80;;;13.57;;
58308;SDS011;44117;57.142;24.826;2022-11-14T14:34:42;96.53;;;17.88;;
58308;SDS011;44117;57.142;24.826;2022-11-14T14:37:20;122.63;;;17.10;;
58308;SDS011;44117;57.142;24.826;2022-11-14T14:39:57;88.38;;;17.42;;
58308;SDS011;44117;57.142;24.826;2022-11-14T14:42:26;48.55;;;12.82;;
58308;SDS011;44117;57.142;24.826;2022-11-14T14:45:02;65.93;;;12.10;;
58308;SDS011;44117;57.142;24.826;2022-11-14T14:50:25;107.35;;;15.48;;
58308;SDS011;44117;57.142;24.826;2022-11-14T14:52:57;54.65;;;13.85;;
58308;SDS011;44117;57.142;24.826;2022-11-14T14:55:26;134.88;;;19.85;;
58308;SDS011;44117;57.142;24.826;2022-11-14T14:57:55;66.00;;;10.98;;
58308;SDS011;44117;57.142;24.826;2022-11-14T15:03:28;204.68;;;20.52;;
58308;SDS011;44117;57.142;24.826;2022-11-14T15:06:22;65.88;;;12.35;;
58308;SDS011;44117;57.142;24.826;2022-11-14T15:09:12;156.93;;;17.42;;
58308;SDS011;44117;57.142;24.826;2022-11-14T15:11:53;100.43;;;15.95;;
58308;SDS011;44117;57.142;24.826;2022-11-14T15:14:33;87.47;;;14.75;;
58308;SDS011;44117;57.142;24.826;2022-11-14T15:17:04;84.03;;;13.98;;
58308;SDS011;44117;57.142;24.826;2022-11-14T15:19:42;102.65;;;24.23;;
58308;SDS011;44117;57.142;24.826;2022-11-14T15:24:41;127.55;;;16.50;;
58308;SDS011;44117;57.142;24.826;2022-11-14T15:27:13;83.55;;;13.48;;
58308;SDS011;44117;57.142;24.826;2022-11-14T15:29:45;149.02;;;18.98;;
58308;SDS011;44117;57.142;24.826;2022-11-14T15:32:20;81.20;;;14.15;;
58308;SDS011;44117;57.142;24.826;2022-11-14T15:35:09;116.15;;;16.23;;
58308;SDS011;44117;57.142;24.826;2022-11-14T15:41:08;110.53;;;23.38;;
58308;SDS011;44117;57.142;24.826;2022-11-14T15:43:50;112.35;;;26.98;;
58308;SDS011;44117;57.142;24.826;2022-11-14T15:46:26;107.38;;;19.77;;
58308;SDS011;44117;57.142;24.826;2022-11-14T15:49:00;90.25;;;17.27;;
58308;SDS011;44117;57.142;24.826;2022-11-14T15:51:46;100.22;;;14.70;;
58308;SDS011;44117;57.142;24.826;2022-11-14T15:54:19;121.90;;;16.33;;
58308;SDS011;44117;57.142;24.826;2022-11-14T15:56:48;130.20;;;27.83;;
58308;SDS011;44117;57.142;24.826;2022-11-14T15:59:16;56.67;;;19.75;;
58308;SDS011;44117;57.142;24.826;2022-11-14T16:01:44;95.07;;;19.90;;
58308;SDS011;44117;57.142;24.826;2022-11-14T16:04:17;116.75;;;25.55;;
58308;SDS011;44117;57.142;24.826;2022-11-14T16:06:46;130.48;;;14.45;;
58308;SDS011;44117;57.142;24.826;2022-11-14T16:09:15;127.05;;;27.48;;
58308;SDS011;44117;57.142;24.826;2022-11-14T16:11:44;144.23;;;29.50;;
58308;SDS011;44117;57.142;24.826;2022-11-14T16:14:14;126.57;;;21.27;;
58308;SDS011;44117;57.142;24.826;2022-11-14T16:16:42;156.07;;;22.77;;
58308;SDS011;44117;57.142;24.826;2022-11-14T16:19:11;130.13;;;32.22;;
58308;SDS011;44117;57.142;24.826;2022-11-14T16:21:41;123.57;;;28.33;;
58308;SDS011;44117;57.142;24.826;2022-11-14T16:24:10;146.32;;;15.05;;
58308;SDS011;44117;57.142;24.826;2022-11-14T16:26:43;227.85;;;20.77;;
58308;SDS011;44117;57.142;24.826;2022-11-14T16:29:11;133.43;;;17.10;;
58308;SDS011;44117;57.142;24.826;2022-11-14T16:31:39;182.80;;;18.33;;
58308;SDS011;44117;57.142;24.826;2022-11-14T16:34:09;124.43;;;30.73;;
58308;SDS011;44117;57.142;24.826;2022-11-14T16:36:42;170.88;;;28.85;;
58308;SDS011;44117;57.142;24.826;2022-11-14T16:39:11;192.52;;;30.02;;
58308;SDS011;44117;57.142;24.826;2022-11-14T16:41:39;164.68;;;27.40;;
58308;SDS011;44117;57.142;24.826;2022-11-14T16:44:11;111.28;;;23.58;;